sensor_id;sensor_type;location;lat;lon;timestamp;P1;durP1;ratioP1;P2;durP2;ratioP2
20203;SDS011;10261;49.010;12.034;2022-11-15T00:00:53;7.90;;;5.45;;
20203;SDS011;10261;49.010;12.034;2022-11-15T00:01:56;9.25;;;6.00;;
20203;SDS011;10261;49.010;12.034;2022-11-15T00:02:58;7.40;;;5.75;;
20203;SDS011;10261;49.010;12.034;2022-11-15T00:04:01;9.52;;;6.85;;
20203;SDS011;10261;49.010;12.034;2022-11-15T00:05:04;10.15;;;6.05;;
20203;SDS011;10261;49.010;12.034;2022-11-15T00:06:08;6.10;;;5.50;;
20203;SDS011;10261;49.010;12.034;2022-11-15T00:07:10;9.00;;;5.68;;
20203;SDS011;10261;49.010;12.034;2022-11-15T00:08:33;7.60;;;5.05;;
20203;SDS011;10261;49.010;12.034;2022-11-15T00:09:35;7.40;;;5.70;;
20203;SDS011;10261;49.010;12.034;2022-11-15T00:10:53;8.40;;;6.00;;
20203;SDS011;10261;49.010;12.034;2022-11-15T00:11:55;7.03;;;5.43;;
20203;SDS011;10261;49.010;12.034;2022-11-15T00:12:58;7.10;;;5.88;;
20203;SDS011;10261;49.010;12.034;2022-11-15T00:14:00;6.55;;;5.68;;
20203;SDS011;10261;49.010;12.034;2022-11-15T00:15:04;8.52;;;5.63;;
20203;SDS011;10261;49.010;12.034;2022-11-15T00:16:08;9.10;;;5.70;;
20203;SDS011;10261;49.010;12.034;2022-11-15T00:17:11;8.25;;;5.70;;
20203;SDS011;10261;49.010;12.034;2022-11-15T00:18:13;8.43;;;5.43;;
20203;SDS011;10261;49.010;12.034;2022-11-15T00:19:17;6.38;;;5.47;;
20203;SDS011;10261;49.010;12.034;2022-11-15T00:20:20;7.07;;;4.95;;
20203;SDS011;10261;49.010;12.034;2022-11-15T00:21:23;5.40;;;4.60;;
20203;SDS011;10261;49.010;12.034;2022-11-15T00:22:30;5.60;;;5.10;;
20203;SDS011;10261;49.010;12.034;2022-11-15T00:23:34;6.50;;;5.60;;
20203;SDS011;10261;49.010;12.034;2022-11-15T00:24:36;7.55;;;5.30;;
20203;SDS011;10261;49.010;12.034;2022-11-15T00:25:39;7.78;;;6.10;;
20203;SDS011;10261;49.010;12.034;2022-11-15T00:26:41;8.98;;;6.28;;
20203;SDS011;10261;49.010;12.034;2022-11-15T00:27:44;7.80;;;6.20;;
20203;SDS011;10261;49.010;12.034;2022-11-15T00:28:46;7.85;;;6.00;;
20203;SDS011;10261;49.010;12.034;2022-11-15T00:29:50;6.32;;;5.45;;
20203;SDS011;10261;49.010;12.034;2022-11-15T00:30:52;6.97;;;6.18;;
20203;SDS011;10261;49.010;12.034;2022-11-15T00:31:55;7.60;;;5.57;;
20203;SDS011;10261;49.010;12.034;2022-11-15T00:33:01;8.88;;;6.07;;
20203;SDS011;10261;49.010;12.034;2022-11-15T00:34:04;8.55;;;5.25;;
20203;SDS011;10261;49.010;12.034;2022-11-15T00:35:06;10.57;;;5.50;;
20203;SDS011;10261;49.010;12.034;2022-11-15T00:36:11;7.05;;;5.45;;
20203;SDS011;10261;49.010;12.034;2022-11-15T00:37:13;6.93;;;5.25;;
20203;SDS011;10261;49.010;12.034;2022-11-15T00:38:16;10.20;;;5.68;;
20203;SDS011;10261;49.010;12.034;2022-11-15T00:39:18;7.35;;;5.07;;
20203;SDS011;10261;49.010;12.034;2022-11-15T00:40:21;6.55;;;5.93;;
20203;SDS011;10261;49.010;12.034;2022-11-15T00:41:23;8.05;;;5.20;;
20203;SDS011;10261;49.010;12.034;2022-11-15T00:42:26;8.93;;;5.15;;
20203;SDS011;10261;49.010;12.034;2022-11-15T00:43:28;7.30;;;5.63;;
20203;SDS011;10261;49.010;12.034;2022-11-15T00:44:32;8.05;;;6.65;;
20203;SDS011;10261;49.010;12.034;2022-11-15T00:45:34;6.93;;;5.82;;
20203;SDS011;10261;49.010;12.034;2022-11-15T00:46:37;6.70;;;6.00;;
20203;SDS011;10261;49.010;12.034;2022-11-15T00:47:39;6.05;;;5.35;;
20203;SDS011;10261;49.010;12.034;2022-11-15T00:48:42;6.45;;;5.57;;
20203;SDS011;10261;49.010;12.034;2022-11-15T00:49:44;7.50;;;5.35;;
20203;SDS011;10261;49.010;12.034;2022-11-15T00:50:46;7.38;;;6.00;;
20203;SDS011;10261;49.010;12.034;2022-11-15T00:51:51;6.90;;;6.25;;
20203;SDS011;10261;49.010;12.034;2022-11-15T00:52:53;7.75;;;6.00;;
20203;SDS011;10261;49.010;12.034;2022-11-15T00:53:56;9.75;;;5.72;;
20203;SDS011;10261;49.010;12.034;2022-11-15T00:54:58;6.43;;;5.15;;
20203;SDS011;10261;49.010;12.034;2022-11-15T00:56:01;9.93;;;5.88;;
20203;SDS011;10261;49.010;12.034;2022-11-15T00:57:03;6.40;;;5.75;;
20203;SDS011;10261;49.010;12.034;2022-11-15T00:58:07;10.75;;;6.68;;
20203;SDS011;10261;49.010;12.034;2022-11-15T00:59:09;8.32;;;6.32;;
20203;SDS011;10261;49.010;12.034;2022-11-15T01:00:12;6.97;;;5.90;;
20203;SDS011;10261;49.010;12.034;2022-11-15T01:01:14;8.10;;;6.07;;
20203;SDS011;10261;49.010;12.034;2022-11-15T01:02:17;9.05;;;6.40;;
20203;SDS011;10261;49.010;12.034;2022-11-15T01:03:19;8.52;;;5.93;;
20203;SDS011;10261;49.010;12.034;2022-11-15T01:04:22;8.43;;;6.15;;
20203;SDS011;10261;49.010;12.034;2022-11-15T01:05:24;7.35;;;5.88;;
20203;SDS011;10261;49.010;12.034;2022-11-15T01:06:27;7.28;;;5.90;;
20203;SDS011;10261;49.010;12.034;2022-11-15T01:07:30;7.88;;;6.18;;
20203;SDS011;10261;49.010;12.034;2022-11-15T01:08:34;7.72;;;5.50;;
20203;SDS011;10261;49.010;12.034;2022-11-15T01:09:36;7.90;;;6.15;;
20203;SDS011;10261;49.010;12.034;2022-11-15T01:10:39;7.65;;;5.60;;
20203;SDS011;10261;49.010;12.034;2022-11-15T01:11:42;9.65;;;6.32;;
20203;SDS011;10261;49.010;12.034;2022-11-15T01:12:45;8.93;;;6.40;;
20203;SDS011;10261;49.010;12.034;2022-11-15T01:13:47;7.68;;;6.15;;
20203;SDS011;10261;49.010;12.034;2022-11-15T01:14:50;6.75;;;6.03;;
20203;SDS011;10261;49.010;12.034;2022-11-15T01:15:52;7.93;;;6.43;;
20203;SDS011;10261;49.010;12.034;2022-11-15T01:16:55;6.00;;;5.43;;
20203;SDS011;10261;49.010;12.034;2022-11-15T01:17:57;10.32;;;6.47;;
20203;SDS011;10261;49.010;12.034;2022-11-15T01:19:00;6.70;;;6.05;;
20203;SDS011;10261;49.010;12.034;2022-11-15T01:20:02;6.90;;;6.20;;
20203;SDS011;10261;49.010;12.034;2022-11-15T01:21:06;8.80;;;5.95;;
20203;SDS011;10261;49.010;12.034;2022-11-15T01:22:09;8.63;;;6.00;;
20203;SDS011;10261;49.010;12.034;2022-11-15T01:23:13;5.70;;;5.00;;
20203;SDS011;10261;49.010;12.034;2022-11-15T01:24:15;5.53;;;5.03;;
20203;SDS011;10261;49.010;12.034;2022-11-15T01:25:19;6.47;;;5.43;;
20203;SDS011;10261;49.010;12.034;2022-11-15T01:26:21;7.95;;;5.45;;
20203;SDS011;10261;49.010;12.034;2022-11-15T01:27:39;8.10;;;5.78;;
20203;SDS011;10261;49.010;12.034;2022-11-15T01:28:41;8.82;;;5.70;;
20203;SDS011;10261;49.010;12.034;2022-11-15T01:29:44;7.55;;;5.68;;
20203;SDS011;10261;49.010;12.034;2022-11-15T01:30:46;6.82;;;5.70;;
20203;SDS011;10261;49.010;12.034;2022-11-15T01:31:49;6.50;;;5.57;;
20203;SDS011;10261;49.010;12.034;2022-11-15T01:32:51;7.18;;;5.90;;
20203;SDS011;10261;49.010;12.034;2022-11-15T01:33:54;6.03;;;5.35;;
20203;SDS011;10261;49.010;12.034;2022-11-15T01:34:56;8.20;;;5.80;;
20203;SDS011;10261;49.010;12.034;2022-11-15T01:36:02;6.30;;;5.35;;
20203;SDS011;10261;49.010;12.034;2022-11-15T01:37:05;7.05;;;6.15;;
20203;SDS011;10261;49.010;12.034;2022-11-15T01:38:07;7.43;;;5.95;;
20203;SDS011;10261;49.010;12.034;2022-11-15T01:39:11;5.88;;;5.28;;
20203;SDS011;10261;49.010;12.034;2022-11-15T01:40:14;8.85;;;6.85;;
20203;SDS011;10261;49.010;12.034;2022-11-15T01:41:16;7.65;;;5.90;;
20203;SDS011;10261;49.010;12.034;2022-11-15T01:42:21;7.75;;;5.60;;
20203;SDS011;10261;49.010;12.034;2022-11-15T01:43:24;7.63;;;5.93;;
20203;SDS011;10261;49.010;12.034;2022-11-15T01:44:35;6.22;;;5.20;;
20203;SDS011;10261;49.010;12.034;2022-11-15T01:45:45;6.95;;;5.90;;
20203;SDS011;10261;49.010;12.034;2022-11-15T01:46:52;5.10;;;4.60;;
20203;SDS011;10261;49.010;12.034;2022-11-15T01:47:54;6.10;;;5.00;;
20203;SDS011;10261;49.010;12.034;2022-11-15T01:49:00;8.63;;;4.95;;
20203;SDS011;10261;49.010;12.034;2022-11-15T01:50:05;7.20;;;5.45;;
20203;SDS011;10261;49.010;12.034;2022-11-15T01:51:11;6.80;;;5.32;;
20203;SDS011;10261;49.010;12.034;2022-11-15T01:52:17;7.93;;;5.55;;
20203;SDS011;10261;49.010;12.034;2022-11-15T01:53:23;6.20;;;5.30;;
20203;SDS011;10261;49.010;12.034;2022-11-15T01:54:28;7.25;;;6.22;;
20203;SDS011;10261;49.010;12.034;2022-11-15T01:55:31;6.00;;;5.40;;
20203;SDS011;10261;49.010;12.034;2022-11-15T01:56:36;6.05;;;5.32;;
20203;SDS011;10261;49.010;12.034;2022-11-15T01:57:42;6.30;;;5.30;;
20203;SDS011;10261;49.010;12.034;2022-11-15T01:58:48;8.18;;;5.38;;
20203;SDS011;10261;49.010;12.034;2022-11-15T01:59:52;5.78;;;4.97;;
20203;SDS011;10261;49.010;12.034;2022-11-15T02:00:56;11.25;;;5.93;;
20203;SDS011;10261;49.010;12.034;2022-11-15T02:01:58;6.20;;;5.60;;
20203;SDS011;10261;49.010;12.034;2022-11-15T02:03:01;7.47;;;5.75;;
20203;SDS011;10261;49.010;12.034;2022-11-15T02:04:05;6.18;;;5.55;;
20203;SDS011;10261;49.010;12.034;2022-11-15T02:05:12;6.57;;;5.00;;
20203;SDS011;10261;49.010;12.034;2022-11-15T02:06:15;9.02;;;6.03;;
20203;SDS011;10261;49.010;12.034;2022-11-15T02:07:18;5.43;;;4.93;;
20203;SDS011;10261;49.010;12.034;2022-11-15T02:08:23;6.38;;;5.38;;
20203;SDS011;10261;49.010;12.034;2022-11-15T02:09:25;8.25;;;5.82;;
20203;SDS011;10261;49.010;12.034;2022-11-15T02:10:30;6.03;;;5.43;;
20203;SDS011;10261;49.010;12.034;2022-11-15T02:11:32;6.03;;;5.05;;
20203;SDS011;10261;49.010;12.034;2022-11-15T02:12:35;5.93;;;5.30;;
20203;SDS011;10261;49.010;12.034;2022-11-15T02:13:37;8.32;;;5.45;;
20203;SDS011;10261;49.010;12.034;2022-11-15T02:14:42;6.53;;;5.50;;
20203;SDS011;10261;49.010;12.034;2022-11-15T02:15:51;6.95;;;5.97;;
20203;SDS011;10261;49.010;12.034;2022-11-15T02:17:05;10.85;;;5.68;;
20203;SDS011;10261;49.010;12.034;2022-11-15T02:18:19;7.47;;;5.10;;
20203;SDS011;10261;49.010;12.034;2022-11-15T02:19:33;7.75;;;6.35;;
20203;SDS011;10261;49.010;12.034;2022-11-15T02:22:14;7.28;;;5.50;;
20203;SDS011;10261;49.010;12.034;2022-11-15T02:23:33;6.97;;;5.88;;
20203;SDS011;10261;49.010;12.034;2022-11-15T02:25:16;6.57;;;5.43;;
20203;SDS011;10261;49.010;12.034;2022-11-15T02:26:47;6.80;;;5.10;;
20203;SDS011;10261;49.010;12.034;2022-11-15T02:28:27;8.10;;;6.03;;
20203;SDS011;10261;49.010;12.034;2022-11-15T02:29:51;7.20;;;5.15;;
20203;SDS011;10261;49.010;12.034;2022-11-15T02:31:07;7.32;;;5.45;;
20203;SDS011;10261;49.010;12.034;2022-11-15T02:32:16;10.13;;;5.43;;
20203;SDS011;10261;49.010;12.034;2022-11-15T02:33:27;6.32;;;5.68;;
20203;SDS011;10261;49.010;12.034;2022-11-15T02:34:41;8.52;;;6.10;;
20203;SDS011;10261;49.010;12.034;2022-11-15T02:35:51;8.73;;;5.57;;
20203;SDS011;10261;49.010;12.034;2022-11-15T02:37:01;7.70;;;5.97;;
20203;SDS011;10261;49.010;12.034;2022-11-15T02:38:11;5.75;;;5.13;;
20203;SDS011;10261;49.010;12.034;2022-11-15T02:39:21;6.93;;;5.32;;
20203;SDS011;10261;49.010;12.034;2022-11-15T02:40:34;8.40;;;6.45;;
20203;SDS011;10261;49.010;12.034;2022-11-15T02:41:42;7.80;;;5.75;;
20203;SDS011;10261;49.010;12.034;2022-11-15T02:42:50;6.45;;;5.70;;
20203;SDS011;10261;49.010;12.034;2022-11-15T02:44:14;6.05;;;5.45;;
20203;SDS011;10261;49.010;12.034;2022-11-15T02:45:21;6.85;;;6.00;;
20203;SDS011;10261;49.010;12.034;2022-11-15T02:46:31;7.65;;;5.28;;
20203;SDS011;10261;49.010;12.034;2022-11-15T02:47:56;7.32;;;5.60;;
20203;SDS011;10261;49.010;12.034;2022-11-15T02:49:01;6.95;;;5.63;;
20203;SDS011;10261;49.010;12.034;2022-11-15T02:50:05;7.35;;;5.20;;
20203;SDS011;10261;49.010;12.034;2022-11-15T02:51:11;10.05;;;6.40;;
20203;SDS011;10261;49.010;12.034;2022-11-15T02:52:15;8.00;;;5.72;;
20203;SDS011;10261;49.010;12.034;2022-11-15T02:53:23;6.60;;;5.75;;
20203;SDS011;10261;49.010;12.034;2022-11-15T02:54:26;7.65;;;5.60;;
20203;SDS011;10261;49.010;12.034;2022-11-15T02:55:33;7.53;;;5.85;;
20203;SDS011;10261;49.010;12.034;2022-11-15T02:56:36;6.38;;;5.60;;
20203;SDS011;10261;49.010;12.034;2022-11-15T02:57:41;6.70;;;4.97;;
20203;SDS011;10261;49.010;12.034;2022-11-15T02:59:02;12.48;;;5.40;;
20203;SDS011;10261;49.010;12.034;2022-11-15T03:00:14;8.10;;;6.10;;
20203;SDS011;10261;49.010;12.034;2022-11-15T03:01:20;8.02;;;6.63;;
20203;SDS011;10261;49.010;12.034;2022-11-15T03:02:39;7.65;;;6.55;;
20203;SDS011;10261;49.010;12.034;2022-11-15T03:03:59;11.40;;;6.35;;
20203;SDS011;10261;49.010;12.034;2022-11-15T03:05:13;7.30;;;5.35;;
20203;SDS011;10261;49.010;12.034;2022-11-15T03:06:24;9.88;;;6.55;;
20203;SDS011;10261;49.010;12.034;2022-11-15T03:07:36;15.18;;;6.20;;
20203;SDS011;10261;49.010;12.034;2022-11-15T03:08:45;8.15;;;5.88;;
20203;SDS011;10261;49.010;12.034;2022-11-15T03:09:56;9.38;;;5.20;;
20203;SDS011;10261;49.010;12.034;2022-11-15T03:11:03;7.97;;;6.53;;
20203;SDS011;10261;49.010;12.034;2022-11-15T03:12:12;7.50;;;6.20;;
20203;SDS011;10261;49.010;12.034;2022-11-15T03:13:26;9.57;;;5.30;;
20203;SDS011;10261;49.010;12.034;2022-11-15T03:14:34;6.90;;;5.55;;
20203;SDS011;10261;49.010;12.034;2022-11-15T03:15:41;7.10;;;5.57;;
20203;SDS011;10261;49.010;12.034;2022-11-15T03:16:50;7.20;;;5.18;;
20203;SDS011;10261;49.010;12.034;2022-11-15T03:18:01;7.07;;;5.25;;
20203;SDS011;10261;49.010;12.034;2022-11-15T03:19:12;9.35;;;6.03;;
20203;SDS011;10261;49.010;12.034;2022-11-15T03:20:18;7.15;;;5.10;;
20203;SDS011;10261;49.010;12.034;2022-11-15T03:21:22;6.55;;;5.60;;
20203;SDS011;10261;49.010;12.034;2022-11-15T03:22:27;11.98;;;6.65;;
20203;SDS011;10261;49.010;12.034;2022-11-15T03:23:32;10.27;;;6.32;;
20203;SDS011;10261;49.010;12.034;2022-11-15T03:24:36;10.75;;;6.80;;
20203;SDS011;10261;49.010;12.034;2022-11-15T03:25:41;8.10;;;6.13;;
20203;SDS011;10261;49.010;12.034;2022-11-15T03:26:46;9.05;;;6.80;;
20203;SDS011;10261;49.010;12.034;2022-11-15T03:27:52;6.45;;;5.82;;
20203;SDS011;10261;49.010;12.034;2022-11-15T03:28:57;8.75;;;6.55;;
20203;SDS011;10261;49.010;12.034;2022-11-15T03:30:04;6.53;;;5.63;;
20203;SDS011;10261;49.010;12.034;2022-11-15T03:31:08;8.93;;;5.55;;
20203;SDS011;10261;49.010;12.034;2022-11-15T03:32:30;7.57;;;5.45;;
20203;SDS011;10261;49.010;12.034;2022-11-15T03:33:36;7.15;;;5.10;;
20203;SDS011;10261;49.010;12.034;2022-11-15T03:34:40;7.20;;;5.47;;
20203;SDS011;10261;49.010;12.034;2022-11-15T03:35:47;7.07;;;5.63;;
20203;SDS011;10261;49.010;12.034;2022-11-15T03:36:49;8.23;;;5.55;;
20203;SDS011;10261;49.010;12.034;2022-11-15T03:37:57;9.00;;;5.85;;
20203;SDS011;10261;49.010;12.034;2022-11-15T03:39:05;8.68;;;5.82;;
20203;SDS011;10261;49.010;12.034;2022-11-15T03:40:09;6.32;;;5.70;;
20203;SDS011;10261;49.010;12.034;2022-11-15T03:41:15;6.93;;;5.18;;
20203;SDS011;10261;49.010;12.034;2022-11-15T03:42:25;7.65;;;4.85;;
20203;SDS011;10261;49.010;12.034;2022-11-15T03:43:33;8.30;;;5.35;;
20203;SDS011;10261;49.010;12.034;2022-11-15T03:44:42;6.35;;;5.18;;
20203;SDS011;10261;49.010;12.034;2022-11-15T03:45:50;9.63;;;5.40;;
20203;SDS011;10261;49.010;12.034;2022-11-15T03:46:57;11.43;;;6.10;;
20203;SDS011;10261;49.010;12.034;2022-11-15T03:48:08;9.80;;;5.53;;
20203;SDS011;10261;49.010;12.034;2022-11-15T03:49:17;8.45;;;6.70;;
20203;SDS011;10261;49.010;12.034;2022-11-15T03:50:24;5.88;;;4.97;;
20203;SDS011;10261;49.010;12.034;2022-11-15T03:51:28;7.18;;;6.03;;
20203;SDS011;10261;49.010;12.034;2022-11-15T03:52:32;7.25;;;6.05;;
20203;SDS011;10261;49.010;12.034;2022-11-15T03:53:36;8.77;;;5.68;;
20203;SDS011;10261;49.010;12.034;2022-11-15T03:54:47;6.78;;;5.38;;
20203;SDS011;10261;49.010;12.034;2022-11-15T03:55:51;7.60;;;5.68;;
20203;SDS011;10261;49.010;12.034;2022-11-15T03:56:54;8.60;;;6.35;;
20203;SDS011;10261;49.010;12.034;2022-11-15T03:57:57;7.40;;;5.90;;
20203;SDS011;10261;49.010;12.034;2022-11-15T03:59:02;5.78;;;4.97;;
20203;SDS011;10261;49.010;12.034;2022-11-15T04:00:04;7.97;;;5.70;;
20203;SDS011;10261;49.010;12.034;2022-11-15T04:01:08;8.63;;;6.20;;
20203;SDS011;10261;49.010;12.034;2022-11-15T04:02:10;6.53;;;5.05;;
20203;SDS011;10261;49.010;12.034;2022-11-15T04:03:13;9.45;;;5.90;;
20203;SDS011;10261;49.010;12.034;2022-11-15T04:04:17;7.90;;;6.10;;
20203;SDS011;10261;49.010;12.034;2022-11-15T04:05:20;5.57;;;4.60;;
20203;SDS011;10261;49.010;12.034;2022-11-15T04:06:22;7.43;;;5.28;;
20203;SDS011;10261;49.010;12.034;2022-11-15T04:07:25;7.88;;;5.25;;
20203;SDS011;10261;49.010;12.034;2022-11-15T04:08:27;5.97;;;5.05;;
20203;SDS011;10261;49.010;12.034;2022-11-15T04:09:30;6.63;;;5.20;;
20203;SDS011;10261;49.010;12.034;2022-11-15T04:10:32;7.43;;;5.18;;
20203;SDS011;10261;49.010;12.034;2022-11-15T04:11:35;6.15;;;5.30;;
20203;SDS011;10261;49.010;12.034;2022-11-15T04:12:37;6.18;;;5.03;;
20203;SDS011;10261;49.010;12.034;2022-11-15T04:13:43;9.70;;;5.50;;
20203;SDS011;10261;49.010;12.034;2022-11-15T04:14:45;7.88;;;5.93;;
20203;SDS011;10261;49.010;12.034;2022-11-15T04:16:08;10.57;;;7.88;;
20203;SDS011;10261;49.010;12.034;2022-11-15T04:17:11;9.52;;;6.85;;
20203;SDS011;10261;49.010;12.034;2022-11-15T04:18:13;8.93;;;7.55;;
20203;SDS011;10261;49.010;12.034;2022-11-15T04:19:17;9.10;;;7.85;;
20203;SDS011;10261;49.010;12.034;2022-11-15T04:20:38;8.18;;;6.55;;
20203;SDS011;10261;49.010;12.034;2022-11-15T04:21:58;8.00;;;7.13;;
20203;SDS011;10261;49.010;12.034;2022-11-15T04:23:19;7.88;;;6.55;;
20203;SDS011;10261;49.010;12.034;2022-11-15T04:24:41;8.52;;;6.50;;
20203;SDS011;10261;49.010;12.034;2022-11-15T04:25:44;6.90;;;6.20;;
20203;SDS011;10261;49.010;12.034;2022-11-15T04:26:47;8.95;;;6.40;;
20203;SDS011;10261;49.010;12.034;2022-11-15T04:27:50;7.18;;;5.72;;
20203;SDS011;10261;49.010;12.034;2022-11-15T04:28:52;10.32;;;7.35;;
20203;SDS011;10261;49.010;12.034;2022-11-15T04:30:13;7.65;;;6.00;;
20203;SDS011;10261;49.010;12.034;2022-11-15T04:31:16;6.75;;;6.05;;
20203;SDS011;10261;49.010;12.034;2022-11-15T04:32:18;7.13;;;6.18;;
20203;SDS011;10261;49.010;12.034;2022-11-15T04:33:21;7.90;;;6.15;;
20203;SDS011;10261;49.010;12.034;2022-11-15T04:34:25;9.07;;;5.82;;
20203;SDS011;10261;49.010;12.034;2022-11-15T04:35:27;7.07;;;5.70;;
20203;SDS011;10261;49.010;12.034;2022-11-15T04:36:30;6.85;;;5.70;;
20203;SDS011;10261;49.010;12.034;2022-11-15T04:37:56;8.57;;;5.35;;
20203;SDS011;10261;49.010;12.034;2022-11-15T04:38:59;8.18;;;5.30;;
20203;SDS011;10261;49.010;12.034;2022-11-15T04:40:02;11.25;;;6.07;;
20203;SDS011;10261;49.010;12.034;2022-11-15T04:41:05;9.35;;;5.85;;
20203;SDS011;10261;49.010;12.034;2022-11-15T04:42:08;7.95;;;5.93;;
20203;SDS011;10261;49.010;12.034;2022-11-15T04:43:11;6.95;;;5.00;;
20203;SDS011;10261;49.010;12.034;2022-11-15T04:44:13;6.20;;;5.38;;
20203;SDS011;10261;49.010;12.034;2022-11-15T04:45:16;9.07;;;5.63;;
20203;SDS011;10261;49.010;12.034;2022-11-15T04:46:18;6.85;;;5.68;;
20203;SDS011;10261;49.010;12.034;2022-11-15T04:47:21;7.15;;;4.93;;
20203;SDS011;10261;49.010;12.034;2022-11-15T04:48:23;8.15;;;5.55;;
20203;SDS011;10261;49.010;12.034;2022-11-15T04:49:27;6.97;;;5.15;;
20203;SDS011;10261;49.010;12.034;2022-11-15T04:50:29;9.85;;;6.32;;
20203;SDS011;10261;49.010;12.034;2022-11-15T04:51:32;8.05;;;6.82;;
20203;SDS011;10261;49.010;12.034;2022-11-15T04:52:34;7.65;;;5.88;;
20203;SDS011;10261;49.010;12.034;2022-11-15T04:53:37;6.72;;;5.25;;
20203;SDS011;10261;49.010;12.034;2022-11-15T04:54:39;7.97;;;4.38;;
20203;SDS011;10261;49.010;12.034;2022-11-15T04:55:44;5.15;;;4.40;;
20203;SDS011;10261;49.010;12.034;2022-11-15T04:56:46;5.85;;;5.22;;
20203;SDS011;10261;49.010;12.034;2022-11-15T04:57:56;11.20;;;5.32;;
20203;SDS011;10261;49.010;12.034;2022-11-15T04:58:59;8.93;;;5.47;;
20203;SDS011;10261;49.010;12.034;2022-11-15T05:00:03;8.57;;;6.22;;
20203;SDS011;10261;49.010;12.034;2022-11-15T05:01:07;6.40;;;5.38;;
20203;SDS011;10261;49.010;12.034;2022-11-15T05:02:10;12.05;;;6.00;;
20203;SDS011;10261;49.010;12.034;2022-11-15T05:03:12;6.70;;;5.55;;
20203;SDS011;10261;49.010;12.034;2022-11-15T05:04:34;7.80;;;4.97;;
20203;SDS011;10261;49.010;12.034;2022-11-15T05:05:37;10.77;;;6.20;;
20203;SDS011;10261;49.010;12.034;2022-11-15T05:06:39;7.90;;;5.45;;
20203;SDS011;10261;49.010;12.034;2022-11-15T05:07:42;9.30;;;5.90;;
20203;SDS011;10261;49.010;12.034;2022-11-15T05:08:45;7.65;;;5.72;;
20203;SDS011;10261;49.010;12.034;2022-11-15T05:09:47;6.90;;;5.78;;
20203;SDS011;10261;49.010;12.034;2022-11-15T05:10:53;8.82;;;5.57;;
20203;SDS011;10261;49.010;12.034;2022-11-15T05:11:55;5.45;;;4.70;;
20203;SDS011;10261;49.010;12.034;2022-11-15T05:12:58;10.48;;;5.47;;
20203;SDS011;10261;49.010;12.034;2022-11-15T05:14:00;8.38;;;5.75;;
20203;SDS011;10261;49.010;12.034;2022-11-15T05:15:03;7.78;;;5.47;;
20203;SDS011;10261;49.010;12.034;2022-11-15T05:16:06;7.78;;;5.80;;
20203;SDS011;10261;49.010;12.034;2022-11-15T05:17:09;10.30;;;6.57;;
20203;SDS011;10261;49.010;12.034;2022-11-15T05:18:11;7.47;;;5.50;;
20203;SDS011;10261;49.010;12.034;2022-11-15T05:19:18;8.70;;;6.10;;
20203;SDS011;10261;49.010;12.034;2022-11-15T05:20:21;8.70;;;6.40;;
20203;SDS011;10261;49.010;12.034;2022-11-15T05:21:24;6.80;;;5.85;;
20203;SDS011;10261;49.010;12.034;2022-11-15T05:22:27;9.45;;;5.88;;
20203;SDS011;10261;49.010;12.034;2022-11-15T05:23:30;7.60;;;5.93;;
20203;SDS011;10261;49.010;12.034;2022-11-15T05:24:32;12.38;;;6.45;;
20203;SDS011;10261;49.010;12.034;2022-11-15T05:25:36;7.20;;;5.80;;
20203;SDS011;10261;49.010;12.034;2022-11-15T05:26:38;8.80;;;5.38;;
20203;SDS011;10261;49.010;12.034;2022-11-15T05:27:41;11.85;;;6.07;;
20203;SDS011;10261;49.010;12.034;2022-11-15T05:28:43;8.98;;;6.07;;
20203;SDS011;10261;49.010;12.034;2022-11-15T05:29:46;14.20;;;7.53;;
20203;SDS011;10261;49.010;12.034;2022-11-15T05:30:48;9.90;;;6.47;;
20203;SDS011;10261;49.010;12.034;2022-11-15T05:31:51;8.93;;;6.32;;
20203;SDS011;10261;49.010;12.034;2022-11-15T05:32:54;10.50;;;6.60;;
20203;SDS011;10261;49.010;12.034;2022-11-15T05:33:56;9.82;;;6.03;;
20203;SDS011;10261;49.010;12.034;2022-11-15T05:35:00;8.93;;;6.25;;
20203;SDS011;10261;49.010;12.034;2022-11-15T05:36:06;8.60;;;6.70;;
20203;SDS011;10261;49.010;12.034;2022-11-15T05:37:13;8.50;;;6.50;;
20203;SDS011;10261;49.010;12.034;2022-11-15T05:38:16;10.13;;;7.53;;
20203;SDS011;10261;49.010;12.034;2022-11-15T05:39:18;8.35;;;6.40;;
20203;SDS011;10261;49.010;12.034;2022-11-15T05:40:21;7.47;;;6.15;;
20203;SDS011;10261;49.010;12.034;2022-11-15T05:41:24;8.55;;;6.32;;
20203;SDS011;10261;49.010;12.034;2022-11-15T05:42:31;8.98;;;6.47;;
20203;SDS011;10261;49.010;12.034;2022-11-15T05:43:34;18.83;;;6.38;;
20203;SDS011;10261;49.010;12.034;2022-11-15T05:44:40;10.48;;;7.53;;
20203;SDS011;10261;49.010;12.034;2022-11-15T05:45:45;8.43;;;6.25;;
20203;SDS011;10261;49.010;12.034;2022-11-15T05:46:48;6.60;;;5.25;;
20203;SDS011;10261;49.010;12.034;2022-11-15T05:47:55;7.68;;;5.85;;
20203;SDS011;10261;49.010;12.034;2022-11-15T05:49:00;10.50;;;6.50;;
20203;SDS011;10261;49.010;12.034;2022-11-15T05:50:03;8.98;;;6.05;;
20203;SDS011;10261;49.010;12.034;2022-11-15T05:51:07;6.82;;;5.60;;
20203;SDS011;10261;49.010;12.034;2022-11-15T05:52:10;9.40;;;6.40;;
20203;SDS011;10261;49.010;12.034;2022-11-15T05:53:18;7.22;;;5.95;;
20203;SDS011;10261;49.010;12.034;2022-11-15T05:54:22;8.38;;;5.88;;
20203;SDS011;10261;49.010;12.034;2022-11-15T05:55:26;8.10;;;5.78;;
20203;SDS011;10261;49.010;12.034;2022-11-15T05:56:28;9.10;;;7.00;;
20203;SDS011;10261;49.010;12.034;2022-11-15T05:57:32;8.40;;;5.68;;
20203;SDS011;10261;49.010;12.034;2022-11-15T05:58:34;14.48;;;6.32;;
20203;SDS011;10261;49.010;12.034;2022-11-15T05:59:38;7.03;;;5.38;;
20203;SDS011;10261;49.010;12.034;2022-11-15T06:00:42;9.57;;;6.50;;
20203;SDS011;10261;49.010;12.034;2022-11-15T06:01:45;8.32;;;5.47;;
20203;SDS011;10261;49.010;12.034;2022-11-15T06:02:48;8.02;;;5.85;;
20203;SDS011;10261;49.010;12.034;2022-11-15T06:03:50;18.52;;;6.65;;
20203;SDS011;10261;49.010;12.034;2022-11-15T06:04:53;10.15;;;6.75;;
20203;SDS011;10261;49.010;12.034;2022-11-15T06:05:55;8.70;;;6.07;;
20203;SDS011;10261;49.010;12.034;2022-11-15T06:07:00;10.15;;;6.50;;
20203;SDS011;10261;49.010;12.034;2022-11-15T06:08:03;18.00;;;7.40;;
20203;SDS011;10261;49.010;12.034;2022-11-15T06:09:06;9.68;;;6.80;;
20203;SDS011;10261;49.010;12.034;2022-11-15T06:10:08;10.70;;;7.88;;
20203;SDS011;10261;49.010;12.034;2022-11-15T06:11:11;9.50;;;7.18;;
20203;SDS011;10261;49.010;12.034;2022-11-15T06:12:14;10.43;;;7.57;;
20203;SDS011;10261;49.010;12.034;2022-11-15T06:13:17;11.63;;;7.50;;
20203;SDS011;10261;49.010;12.034;2022-11-15T06:14:20;10.07;;;6.95;;
20203;SDS011;10261;49.010;12.034;2022-11-15T06:15:23;9.25;;;6.80;;
20203;SDS011;10261;49.010;12.034;2022-11-15T06:16:25;10.02;;;8.20;;
20203;SDS011;10261;49.010;12.034;2022-11-15T06:17:28;9.55;;;7.18;;
20203;SDS011;10261;49.010;12.034;2022-11-15T06:18:31;12.93;;;7.80;;
20203;SDS011;10261;49.010;12.034;2022-11-15T06:19:38;10.02;;;7.72;;
20203;SDS011;10261;49.010;12.034;2022-11-15T06:20:40;12.93;;;7.75;;
20203;SDS011;10261;49.010;12.034;2022-11-15T06:21:43;13.02;;;7.97;;
20203;SDS011;10261;49.010;12.034;2022-11-15T06:22:46;12.10;;;8.20;;
20203;SDS011;10261;49.010;12.034;2022-11-15T06:23:49;14.93;;;9.15;;
20203;SDS011;10261;49.010;12.034;2022-11-15T06:24:51;17.52;;;8.60;;
20203;SDS011;10261;49.010;12.034;2022-11-15T06:25:57;13.35;;;9.77;;
20203;SDS011;10261;49.010;12.034;2022-11-15T06:26:59;14.38;;;9.02;;
20203;SDS011;10261;49.010;12.034;2022-11-15T06:28:02;12.52;;;9.40;;
20203;SDS011;10261;49.010;12.034;2022-11-15T06:29:04;11.55;;;7.82;;
20203;SDS011;10261;49.010;12.034;2022-11-15T06:30:08;11.70;;;7.32;;